KCVO

Corvallis Municipal Airport

Corvallis, Oregon, USA
METAR KCVO 271156Z AUTO 00000KT 10SM CLR 08/07 A3026 RMK AO2 SLP246 T00780067 10117 20078 51008
Observed Flight Rules
May-27 @ 11:56 UTC (8 minutes ago) Visual Flight Rules
Visibility Clouds
10 miles
  • Clear skies
Temperatures Readings
Current 8°C / 46°F
Dewpoint 7°C / 45°F
Humidity 93%
Altimeter 30.26" Hg
Pressure 1024.6 hPa
Elevation 75
METAR KCVO 271156Z AUTO 00000KT 10SM CLR 08/07 A3026 RMK AO2 SLP246 T00780067 10117 20078 51008
Observed Flight Rules
May-27 @ 11:56 UTC
(8 minutes ago)
VFR
Clouds
  • Clear skies
Temperature Dewpoint
8°C / 46°F 7°C / 45°F
Humidity Altimeter Pressure
93% 30.26" Hg 1024.6 hPa